createdAt,value
2019-02-28T00:00:33.943Z,4.42
2019-02-28T00:01:33.930Z,4.34
2019-02-28T00:02:33.921Z,4.33
2019-02-28T00:03:33.908Z,4.29
2019-02-28T00:04:33.898Z,4.22
2019-02-28T00:05:33.887Z,4.14
2019-02-28T00:06:33.877Z,4.18
2019-02-28T00:07:33.865Z,4.14
2019-02-28T00:08:33.856Z,4.06
2019-02-28T00:09:33.845Z,3.98
2019-02-28T00:10:33.834Z,3.96
2019-02-28T00:11:36.097Z,3.94
2019-02-28T00:12:34.819Z,3.90
2019-02-28T00:13:33.803Z,3.83
2019-02-28T00:14:33.794Z,3.76
2019-02-28T00:15:33.781Z,3.66
2019-02-28T00:16:35.626Z,3.55
2019-02-28T00:17:33.758Z,3.70
2019-02-28T00:18:33.749Z,3.51
2019-02-28T00:19:33.738Z,3.52
2019-02-28T00:20:33.727Z,3.52
2019-02-28T00:21:33.717Z,3.48
2019-02-28T00:22:33.707Z,3.57
2019-02-28T00:23:33.709Z,3.39
2019-02-28T00:24:33.684Z,3.40
2019-02-28T00:25:37.765Z,3.36
2019-02-28T00:26:33.662Z,3.29
2019-02-28T00:27:33.653Z,3.35
2019-02-28T00:28:33.646Z,3.32
2019-02-28T00:29:34.343Z,3.35
2019-02-28T00:30:33.621Z,3.47
2019-02-28T00:31:33.613Z,3.58
2019-02-28T00:32:33.599Z,3.54
2019-02-28T00:33:33.588Z,3.47
2019-02-28T00:34:36.322Z,3.51
2019-02-28T00:35:34.565Z,3.52
2019-02-28T00:36:33.560Z,3.48
2019-02-28T00:37:33.552Z,3.39
2019-02-28T00:38:33.534Z,3.39
2019-02-28T00:39:34.814Z,3.35
2019-02-28T00:40:33.514Z,3.35
2019-02-28T00:41:33.502Z,3.39
2019-02-28T00:42:33.492Z,3.39
2019-02-28T00:43:33.481Z,3.31
2019-02-28T00:44:33.470Z,3.33
2019-02-28T00:45:36.347Z,3.39
2019-02-28T00:46:33.449Z,3.39
2019-02-28T00:47:33.439Z,3.42
2019-02-28T00:48:33.429Z,3.48
2019-02-28T00:49:33.421Z,3.52
2019-02-28T00:50:33.407Z,3.47
2019-02-28T00:51:33.396Z,3.57
2019-02-28T00:52:35.474Z,3.57
2019-02-28T00:53:33.375Z,3.58
2019-02-28T00:54:33.363Z,3.60
2019-02-28T00:55:33.354Z,3.54
2019-02-28T00:56:33.344Z,3.51
2019-02-28T00:57:33.332Z,3.47
2019-02-28T00:58:33.321Z,3.42
2019-02-28T00:59:33.313Z,3.39
2019-02-28T01:00:33.303Z,3.35
2019-02-28T01:01:33.290Z,3.29
2019-02-28T01:02:33.284Z,3.24
2019-02-28T01:03:33.273Z,3.20
2019-02-28T01:04:33.261Z,3.14
2019-02-28T01:05:33.253Z,3.02
2019-02-28T01:06:33.237Z,2.96
2019-02-28T01:07:33.226Z,2.87
2019-02-28T01:08:33.218Z,2.93
2019-02-28T01:09:33.205Z,2.89
2019-02-28T01:10:38.839Z,2.93
2019-02-28T01:11:34.182Z,2.90
2019-02-28T01:12:33.174Z,2.97
2019-02-28T01:13:33.161Z,2.90
2019-02-28T01:14:35.797Z,2.87
2019-02-28T01:15:33.140Z,2.89
2019-02-28T01:16:33.131Z,2.87
2019-02-28T01:17:33.120Z,2.87
2019-02-28T01:18:34.711Z,2.84
2019-02-28T01:19:33.099Z,2.89
2019-02-28T01:20:33.089Z,2.79
2019-02-28T01:21:33.079Z,2.78
2019-02-28T01:22:33.065Z,2.75
2019-02-28T01:23:33.055Z,2.77
2019-02-28T01:24:34.769Z,2.72
2019-02-28T01:25:33.034Z,2.84
2019-02-28T01:26:33.024Z,2.77
2019-02-28T01:27:33.015Z,2.85
2019-02-28T01:28:33.011Z,2.87
2019-02-28T01:29:35.715Z,2.90
2019-02-28T01:30:32.988Z,2.93
2019-02-28T01:31:32.971Z,2.97
2019-02-28T01:32:32.960Z,2.97
2019-02-28T01:33:32.948Z,2.99
2019-02-28T01:34:33.087Z,2.95
2019-02-28T01:35:32.930Z,3.00
2019-02-28T01:36:32.922Z,3.13
2019-02-28T01:37:32.909Z,3.08
2019-02-28T01:38:32.894Z,3.06
2019-02-28T01:39:32.884Z,3.10
2019-02-28T01:40:35.184Z,3.15
2019-02-28T01:41:32.863Z,3.14
2019-02-28T01:42:32.851Z,3.14
2019-02-28T01:43:32.847Z,3.29
2019-02-28T01:44:35.624Z,3.24
2019-02-28T01:45:32.821Z,3.26
2019-02-28T01:46:32.811Z,3.24
2019-02-28T01:47:32.799Z,3.35
2019-02-28T01:48:32.789Z,3.33
2019-02-28T01:49:32.778Z,3.29
2019-02-28T01:50:32.781Z,3.28
2019-02-28T01:51:36.694Z,3.39
2019-02-28T01:52:32.746Z,3.39
2019-02-28T01:53:32.735Z,3.39
2019-02-28T01:54:32.724Z,3.40
2019-02-28T01:55:32.715Z,3.40
2019-02-28T01:56:34.265Z,3.40
2019-02-28T01:57:32.697Z,3.39
2019-02-28T01:58:32.685Z,3.21
2019-02-28T01:59:32.672Z,3.39
2019-02-28T02:00:32.661Z,3.35
2019-02-28T02:01:32.654Z,3.36
2019-02-28T02:02:32.640Z,3.43
2019-02-28T02:03:32.631Z,3.33
2019-02-28T02:04:32.618Z,3.36
2019-02-28T02:05:32.623Z,3.47
2019-02-28T02:06:32.598Z,3.51
2019-02-28T02:07:33.341Z,3.47
2019-02-28T02:08:32.576Z,3.48
2019-02-28T02:09:32.571Z,3.47
2019-02-28T02:10:32.555Z,3.52
2019-02-28T02:11:32.548Z,3.57
2019-02-28T02:12:32.552Z,3.60
2019-02-28T02:13:36.685Z,3.52
2019-02-28T02:14:32.513Z,3.61
2019-02-28T02:15:32.502Z,3.68
2019-02-28T02:16:32.492Z,3.65
2019-02-28T02:17:35.469Z,3.58
2019-02-28T02:18:32.470Z,3.62
2019-02-28T02:19:32.460Z,3.72
2019-02-28T02:20:32.448Z,3.88
2019-02-28T02:21:34.882Z,4.04
2019-02-28T02:22:32.428Z,3.97
2019-02-28T02:23:32.424Z,4.09
2019-02-28T02:24:32.409Z,4.26
2019-02-28T02:25:36.970Z,4.34
2019-02-28T02:26:33.383Z,4.50
2019-02-28T02:27:32.374Z,4.60
2019-02-28T02:28:32.365Z,4.58
2019-02-28T02:29:36.254Z,4.51
2019-02-28T02:30:32.345Z,4.52
2019-02-28T02:31:32.332Z,4.60
2019-02-28T02:32:37.449Z,4.63
2019-02-28T02:33:33.315Z,4.60
2019-02-28T02:34:32.302Z,4.66
2019-02-28T02:35:32.290Z,4.66
2019-02-28T02:36:32.280Z,4.67
2019-02-28T02:37:32.269Z,4.75
2019-02-28T02:38:40.170Z,4.69
2019-02-28T02:39:33.249Z,4.86
2019-02-28T02:40:32.236Z,5.02
2019-02-28T02:41:33.318Z,5.09
2019-02-28T02:42:32.217Z,5.04
2019-02-28T02:43:32.205Z,5.13
2019-02-28T02:44:32.194Z,5.22
2019-02-28T02:45:32.183Z,5.24
2019-02-28T02:46:32.174Z,5.21
2019-02-28T02:47:32.596Z,5.30
2019-02-28T02:48:32.151Z,5.36
2019-02-28T02:49:32.144Z,5.24
2019-02-28T02:50:35.783Z,5.35
2019-02-28T02:51:32.119Z,5.51
2019-02-28T02:52:32.122Z,5.58
2019-02-28T02:53:32.098Z,5.67
2019-02-28T02:54:32.088Z,5.65
2019-02-28T02:55:32.078Z,5.61
2019-02-28T02:56:32.071Z,5.60
2019-02-28T02:57:32.056Z,5.58
2019-02-28T02:58:32.053Z,5.51
2019-02-28T02:59:37.492Z,5.56
2019-02-28T03:00:33.023Z,5.58
2019-02-28T03:01:32.015Z,5.64
2019-02-28T03:02:33.211Z,5.57
2019-02-28T03:03:31.991Z,5.63
2019-02-28T03:04:31.984Z,5.64
2019-02-28T03:05:35.789Z,5.61
2019-02-28T03:06:31.962Z,5.71
2019-02-28T03:07:31.950Z,5.90
2019-02-28T03:08:36.066Z,5.99
2019-02-28T03:09:31.926Z,6.08
2019-02-28T03:10:31.923Z,5.99
2019-02-28T03:11:31.910Z,6.08
2019-02-28T03:12:32.964Z,6.14
2019-02-28T03:13:31.889Z,6.11
2019-02-28T03:14:31.875Z,6.08
2019-02-28T03:15:31.864Z,6.04
2019-02-28T03:16:33.044Z,6.17
2019-02-28T03:17:31.844Z,6.11
2019-02-28T03:18:31.885Z,6.14
2019-02-28T03:19:33.789Z,6.21
2019-02-28T03:20:31.811Z,6.18
2019-02-28T03:21:31.802Z,6.17
2019-02-28T03:22:31.798Z,6.06
2019-02-28T03:23:37.868Z,6.17
2019-02-28T03:24:32.767Z,6.18
2019-02-28T03:25:31.759Z,6.18
2019-02-28T03:26:31.748Z,6.28
2019-02-28T03:27:31.738Z,6.36
2019-02-28T03:28:33.265Z,6.43
2019-02-28T03:29:31.716Z,6.52
2019-02-28T03:30:33.046Z,6.40
2019-02-28T03:31:31.712Z,6.48
2019-02-28T03:32:39.601Z,6.40
2019-02-28T03:33:32.676Z,6.44
2019-02-28T03:34:31.685Z,6.34
2019-02-28T03:35:40.489Z,6.40
2019-02-28T03:36:32.641Z,6.38
2019-02-28T03:37:33.232Z,6.43
2019-02-28T03:38:31.620Z,6.41
2019-02-28T03:39:31.610Z,6.37
2019-02-28T03:40:31.599Z,6.38
2019-02-28T03:41:31.594Z,6.30
2019-02-28T03:42:31.578Z,6.28
2019-02-28T03:43:31.566Z,6.28
2019-02-28T03:44:31.558Z,6.40
2019-02-28T03:45:35.076Z,6.31
2019-02-28T03:46:31.536Z,6.28
2019-02-28T03:47:31.523Z,6.28
2019-02-28T03:48:35.984Z,6.11
2019-02-28T03:49:31.507Z,6.21
2019-02-28T03:50:31.492Z,6.06
2019-02-28T03:51:31.488Z,6.06
2019-02-28T03:52:31.472Z,6.00
2019-02-28T03:53:31.461Z,6.09
2019-02-28T03:54:31.451Z,6.11
2019-02-28T03:55:31.441Z,6.09
2019-02-28T03:56:31.436Z,6.09
2019-02-28T03:57:31.419Z,6.15
2019-02-28T03:58:31.409Z,5.97
2019-02-28T03:59:31.396Z,5.94
2019-02-28T04:00:33.866Z,5.86
2019-02-28T04:01:31.375Z,5.86
2019-02-28T04:02:31.367Z,5.81
2019-02-28T04:03:33.717Z,5.83
2019-02-28T04:04:31.343Z,5.82
2019-02-28T04:05:31.333Z,5.86
2019-02-28T04:06:31.322Z,5.82
2019-02-28T04:07:31.313Z,5.81
2019-02-28T04:08:31.302Z,5.76
2019-02-28T04:09:31.295Z,5.67
2019-02-28T04:10:31.281Z,5.63
2019-02-28T04:11:32.167Z,5.76
2019-02-28T04:12:31.258Z,5.71
2019-02-28T04:13:31.251Z,5.74
2019-02-28T04:14:33.018Z,5.75
2019-02-28T04:15:31.245Z,5.85
2019-02-28T04:16:31.218Z,5.76
2019-02-28T04:17:31.655Z,5.86
2019-02-28T04:18:31.195Z,5.83
2019-02-28T04:19:31.185Z,5.90
2019-02-28T04:20:36.128Z,5.89
2019-02-28T04:21:32.165Z,5.85
2019-02-28T04:22:31.157Z,5.96
2019-02-28T04:23:35.491Z,5.97
2019-02-28T04:24:32.130Z,6.06
2019-02-28T04:25:31.124Z,6.11
2019-02-28T04:26:31.153Z,6.34
2019-02-28T04:27:31.100Z,6.28
2019-02-28T04:28:31.104Z,6.18
2019-02-28T04:29:31.469Z,6.21
2019-02-28T04:30:31.071Z,6.21
2019-02-28T04:31:31.056Z,6.28
2019-02-28T04:32:31.045Z,6.36
2019-02-28T04:33:37.388Z,6.40
2019-02-28T04:34:32.029Z,6.43
2019-02-28T04:35:31.016Z,6.46
2019-02-28T04:36:35.493Z,6.34
2019-02-28T04:37:31.998Z,6.38
2019-02-28T04:38:30.983Z,6.46
2019-02-28T04:39:30.972Z,6.41
2019-02-28T04:40:30.962Z,6.43
2019-02-28T04:41:32.981Z,6.46
2019-02-28T04:42:30.945Z,6.61
2019-02-28T04:43:30.929Z,6.46
2019-02-28T04:44:30.918Z,6.46
2019-02-28T04:45:30.908Z,6.49
2019-02-28T04:46:31.820Z,6.52
2019-02-28T04:47:30.887Z,6.56
2019-02-28T04:48:30.877Z,6.49
2019-02-28T04:49:30.866Z,6.54
2019-02-28T04:50:32.060Z,6.56
2019-02-28T04:51:30.846Z,6.64
2019-02-28T04:52:30.834Z,6.59
2019-02-28T04:53:30.824Z,6.71
2019-02-28T04:54:30.812Z,6.70
2019-02-28T04:55:30.804Z,6.69
2019-02-28T04:56:30.794Z,6.59
2019-02-28T04:57:30.781Z,6.69
2019-02-28T04:58:30.772Z,6.67
2019-02-28T04:59:31.536Z,6.70
2019-02-28T05:00:30.749Z,6.62
2019-02-28T05:01:30.739Z,6.73
2019-02-28T05:02:30.732Z,6.59
2019-02-28T05:03:30.716Z,6.56
2019-02-28T05:04:33.241Z,6.67
2019-02-28T05:05:31.695Z,6.69
2019-02-28T05:06:30.687Z,6.79
2019-02-28T05:07:30.676Z,6.70
2019-02-28T05:08:30.674Z,6.61
2019-02-28T05:09:30.653Z,6.52
2019-02-28T05:10:30.644Z,6.67
2019-02-28T05:11:31.731Z,6.69
2019-02-28T05:12:30.621Z,6.71
2019-02-28T05:13:30.612Z,6.80
2019-02-28T05:14:30.608Z,6.80
2019-02-28T05:15:30.594Z,6.73
2019-02-28T05:16:30.579Z,6.69
2019-02-28T05:17:30.568Z,6.70
2019-02-28T05:18:30.559Z,6.66
2019-02-28T05:19:32.375Z,6.70
2019-02-28T05:20:32.884Z,6.74
2019-02-28T05:21:30.527Z,6.71
2019-02-28T05:22:30.514Z,6.62
2019-02-28T05:23:35.787Z,6.67
2019-02-28T05:24:31.494Z,6.59
2019-02-28T05:25:30.484Z,6.58
2019-02-28T05:26:30.475Z,6.51
2019-02-28T05:27:34.945Z,6.54
2019-02-28T05:28:30.453Z,6.54
2019-02-28T05:29:30.442Z,6.67
2019-02-28T05:30:30.438Z,6.76
2019-02-28T05:31:30.419Z,6.74
2019-02-28T05:32:32.132Z,6.71
2019-02-28T05:33:31.397Z,6.70
2019-02-28T05:34:30.391Z,6.76
2019-02-28T05:35:30.379Z,6.77
2019-02-28T05:36:30.366Z,6.81
2019-02-28T05:37:30.358Z,6.74
2019-02-28T05:38:30.346Z,6.80
2019-02-28T05:39:31.013Z,6.79
2019-02-28T05:40:30.324Z,6.73
2019-02-28T05:41:30.314Z,6.69
2019-02-28T05:42:30.304Z,6.64
2019-02-28T05:43:32.162Z,6.56
2019-02-28T05:44:30.283Z,6.46
2019-02-28T05:45:30.271Z,6.54
2019-02-28T05:46:30.263Z,6.52
2019-02-28T05:47:32.460Z,6.49
2019-02-28T05:48:30.241Z,6.52
2019-02-28T05:49:30.230Z,6.49
2019-02-28T05:50:30.220Z,6.46
2019-02-28T05:51:30.209Z,6.54
2019-02-28T05:52:30.505Z,6.59
2019-02-28T05:53:30.189Z,6.54
2019-02-28T05:54:30.180Z,6.55
2019-02-28T05:55:30.196Z,6.52
2019-02-28T05:56:33.317Z,6.56
2019-02-28T05:57:30.145Z,6.51
2019-02-28T05:58:30.134Z,6.49
2019-02-28T05:59:30.128Z,6.41
2019-02-28T06:00:30.118Z,6.41
2019-02-28T06:01:30.103Z,6.46
2019-02-28T06:02:30.093Z,6.38
2019-02-28T06:03:30.481Z,6.44
2019-02-28T06:04:30.072Z,6.51
2019-02-28T06:05:30.060Z,6.59
2019-02-28T06:06:30.058Z,6.56
2019-02-28T06:07:30.044Z,6.55
2019-02-28T06:08:30.028Z,6.54
2019-02-28T06:09:30.018Z,6.51
2019-02-28T06:10:30.009Z,6.59
2019-02-28T06:11:34.501Z,6.58
2019-02-28T06:12:30.983Z,6.58
2019-02-28T06:13:29.980Z,6.56
2019-02-28T06:14:29.964Z,6.55
2019-02-28T06:15:29.955Z,6.56
2019-02-28T06:16:29.947Z,6.51
2019-02-28T06:17:29.932Z,6.61
2019-02-28T06:18:32.530Z,6.61
2019-02-28T06:19:29.911Z,6.58
2019-02-28T06:20:29.902Z,6.54
2019-02-28T06:21:29.896Z,6.59
2019-02-28T06:22:30.822Z,6.58
2019-02-28T06:23:29.869Z,6.52
2019-02-28T06:24:29.859Z,6.62
2019-02-28T06:25:29.847Z,6.59
2019-02-28T06:26:31.812Z,6.61
2019-02-28T06:27:29.826Z,6.62
2019-02-28T06:28:30.981Z,6.61
2019-02-28T06:29:29.804Z,6.70
2019-02-28T06:30:29.801Z,6.79
2019-02-28T06:31:29.785Z,6.76
2019-02-28T06:32:29.776Z,6.79
2019-02-28T06:33:30.519Z,6.91
2019-02-28T06:34:29.752Z,6.92
2019-02-28T06:35:29.741Z,6.95
2019-02-28T06:36:29.950Z,7.03
2019-02-28T06:37:29.721Z,6.99
2019-02-28T06:38:29.710Z,7.07
2019-02-28T06:39:29.703Z,7.20
2019-02-28T06:40:32.786Z,7.42
2019-02-28T06:41:29.677Z,7.87
2019-02-28T06:42:29.666Z,8.33
2019-02-28T06:43:29.656Z,8.73
2019-02-28T06:44:29.644Z,8.99
2019-02-28T06:45:29.633Z,9.18
2019-02-28T06:46:29.630Z,9.28
2019-02-28T06:47:29.613Z,9.47
2019-02-28T06:48:29.609Z,9.75
2019-02-28T06:49:29.592Z,9.83
2019-02-28T06:50:29.580Z,9.93
2019-02-28T06:51:29.570Z,10.07
2019-02-28T06:52:29.557Z,9.99
2019-02-28T06:53:31.064Z,10.09
2019-02-28T06:54:29.542Z,10.23
2019-02-28T06:55:29.529Z,10.04
2019-02-28T06:56:30.863Z,10.11
2019-02-28T06:57:29.505Z,10.44
2019-02-28T06:58:30.509Z,10.61
2019-02-28T06:59:29.484Z,10.60
2019-02-28T07:00:29.482Z,10.55
2019-02-28T07:01:29.653Z,10.40
2019-02-28T07:02:31.448Z,10.34
2019-02-28T07:03:29.441Z,10.47
2019-02-28T07:04:29.432Z,10.67
2019-02-28T07:05:29.420Z,10.48
2019-02-28T07:06:29.409Z,10.56
2019-02-28T07:07:29.400Z,10.74
2019-02-28T07:08:29.390Z,11.04
2019-02-28T07:09:30.501Z,11.07
2019-02-28T07:10:29.366Z,10.94
2019-02-28T07:11:29.357Z,10.67
2019-02-28T07:12:30.450Z,10.44
2019-02-28T07:13:29.334Z,10.04
2019-02-28T07:14:29.323Z,10.04
2019-02-28T07:15:29.313Z,9.94
2019-02-28T07:16:30.646Z,9.71
2019-02-28T07:17:29.293Z,9.57
2019-02-28T07:18:29.282Z,9.39
2019-02-28T07:19:29.276Z,9.08
2019-02-28T07:20:29.262Z,8.89
2019-02-28T07:21:29.250Z,8.79
2019-02-28T07:22:29.239Z,8.80
2019-02-28T07:23:30.000Z,8.79
2019-02-28T07:24:29.220Z,8.79
2019-02-28T07:25:29.206Z,8.81
2019-02-28T07:26:29.195Z,8.74
2019-02-28T07:27:29.793Z,8.59
2019-02-28T07:28:29.173Z,8.70
2019-02-28T07:29:29.168Z,8.87
2019-02-28T07:30:29.158Z,8.87
2019-02-28T07:31:29.145Z,9.11
2019-02-28T07:32:31.361Z,9.13
2019-02-28T07:33:30.121Z,9.20
2019-02-28T07:34:29.110Z,9.13
2019-02-28T07:35:32.708Z,9.08
2019-02-28T07:36:29.088Z,9.08
2019-02-28T07:37:29.077Z,8.96
2019-02-28T07:38:29.764Z,8.89
2019-02-28T07:39:29.059Z,8.83
2019-02-28T07:40:29.052Z,8.79
2019-02-28T07:41:29.041Z,8.79
2019-02-28T07:42:29.023Z,8.83
2019-02-28T07:43:29.017Z,8.79
2019-02-28T07:44:29.027Z,8.91
2019-02-28T07:45:29.699Z,8.79
2019-02-28T07:46:28.982Z,8.89
2019-02-28T07:47:28.978Z,8.87
2019-02-28T07:48:30.077Z,8.89
2019-02-28T07:49:28.949Z,8.99
2019-02-28T07:50:28.940Z,8.98
2019-02-28T07:51:28.930Z,9.10
2019-02-28T07:52:33.372Z,9.10
2019-02-28T07:53:28.904Z,9.24
2019-02-28T07:54:28.895Z,9.33
2019-02-28T07:55:30.479Z,9.31
2019-02-28T07:56:28.873Z,9.29
2019-02-28T07:57:28.863Z,9.35
2019-02-28T07:58:29.906Z,9.48
2019-02-28T07:59:28.841Z,9.74
2019-02-28T08:00:28.834Z,10.11
2019-02-28T08:01:28.820Z,10.41
2019-02-28T08:02:28.808Z,11.04
2019-02-28T08:03:28.797Z,11.27
2019-02-28T08:04:28.788Z,11.57
2019-02-28T08:05:31.035Z,11.88
2019-02-28T08:06:28.767Z,12.31
2019-02-28T08:07:28.769Z,12.42
2019-02-28T08:08:28.744Z,12.32
2019-02-28T08:09:28.747Z,12.64
2019-02-28T08:10:28.723Z,12.52
2019-02-28T08:11:28.711Z,12.57
2019-02-28T08:12:30.794Z,12.90
2019-02-28T08:13:28.689Z,13.03
2019-02-28T08:14:28.680Z,13.03
2019-02-28T08:15:28.668Z,13.01
2019-02-28T08:16:30.692Z,12.68
2019-02-28T08:17:29.648Z,12.82
2019-02-28T08:18:28.637Z,12.64
2019-02-28T08:19:28.626Z,12.45
2019-02-28T08:20:30.610Z,12.56
2019-02-28T08:21:29.604Z,12.68
2019-02-28T08:22:28.599Z,12.54
2019-02-28T08:23:29.855Z,12.39
2019-02-28T08:24:28.570Z,12.21
2019-02-28T08:25:28.562Z,12.34
2019-02-28T08:26:28.549Z,12.31
2019-02-28T08:27:28.538Z,12.49
2019-02-28T08:28:29.596Z,12.57
2019-02-28T08:29:28.519Z,12.89
2019-02-28T08:30:28.507Z,13.07
2019-02-28T08:31:31.971Z,13.14
2019-02-28T08:32:28.484Z,13.44
2019-02-28T08:33:28.473Z,13.45
2019-02-28T08:34:28.463Z,12.85
2019-02-28T08:35:34.102Z,12.93
2019-02-28T08:36:29.475Z,13.11
2019-02-28T08:37:28.433Z,13.14
2019-02-28T08:38:30.105Z,13.67
2019-02-28T08:39:29.409Z,14.03
2019-02-28T08:40:28.401Z,14.12
2019-02-28T08:41:28.386Z,13.64
2019-02-28T08:42:28.380Z,13.54
2019-02-28T08:43:28.369Z,13.71
2019-02-28T08:44:28.359Z,13.77
2019-02-28T08:45:32.621Z,13.87
2019-02-28T08:46:28.334Z,14.04
2019-02-28T08:47:28.323Z,14.37
2019-02-28T08:48:31.241Z,13.75
2019-02-28T08:49:28.302Z,13.87
2019-02-28T08:50:28.291Z,13.92
2019-02-28T08:51:30.973Z,13.64
2019-02-28T08:52:28.272Z,13.67
2019-02-28T08:53:28.259Z,13.87
2019-02-28T08:54:28.248Z,13.84
2019-02-28T08:55:29.331Z,13.79
2019-02-28T08:56:28.225Z,13.66
2019-02-28T08:57:28.221Z,13.55
2019-02-28T08:58:28.205Z,13.42
2019-02-28T08:59:28.193Z,13.79
2019-02-28T09:00:32.780Z,13.97
2019-02-28T09:01:28.175Z,14.04
2019-02-28T09:02:28.162Z,14.02
2019-02-28T09:03:28.161Z,14.33
2019-02-28T09:04:28.145Z,14.47
2019-02-28T09:05:30.078Z,14.68
2019-02-28T09:06:28.118Z,14.88
2019-02-28T09:07:28.107Z,14.47
2019-02-28T09:08:28.097Z,14.32
2019-02-28T09:09:28.089Z,14.33
2019-02-28T09:10:28.083Z,14.80
2019-02-28T09:11:28.067Z,15.06
2019-02-28T09:12:29.882Z,15.34
2019-02-28T09:13:29.046Z,15.34
2019-02-28T09:14:28.032Z,15.16
2019-02-28T09:15:31.060Z,15.49
2019-02-28T09:16:28.012Z,14.94
2019-02-28T09:17:28.003Z,14.80
2019-02-28T09:18:27.990Z,15.21
2019-02-28T09:19:27.981Z,15.09
2019-02-28T09:20:27.971Z,14.81
2019-02-28T09:21:27.959Z,14.95
2019-02-28T09:22:28.155Z,15.49
2019-02-28T09:23:27.937Z,15.59
2019-02-28T09:24:27.935Z,14.94
2019-02-28T09:25:27.917Z,15.14
2019-02-28T09:26:28.217Z,15.10
2019-02-28T09:27:27.895Z,14.95
2019-02-28T09:28:27.884Z,14.80
2019-02-28T09:29:27.872Z,14.77
2019-02-28T09:30:29.716Z,15.11
2019-02-28T09:31:27.855Z,14.94
2019-02-28T09:32:27.843Z,14.98
2019-02-28T09:33:27.837Z,15.06
2019-02-28T09:34:30.667Z,15.28
2019-02-28T09:35:27.808Z,15.74
2019-02-28T09:36:27.798Z,15.82
2019-02-28T09:37:29.820Z,15.86
2019-02-28T09:38:27.781Z,15.87
2019-02-28T09:39:27.769Z,15.64
2019-02-28T09:40:29.456Z,15.86
2019-02-28T09:41:27.747Z,15.64
2019-02-28T09:42:27.736Z,15.53
2019-02-28T09:43:27.724Z,15.47
2019-02-28T09:44:31.445Z,15.23
2019-02-28T09:45:27.748Z,14.69
2019-02-28T09:46:27.693Z,14.89
2019-02-28T09:47:27.681Z,14.89
2019-02-28T09:48:27.671Z,15.20
2019-02-28T09:49:27.662Z,15.20
2019-02-28T09:50:27.649Z,15.13
2019-02-28T09:51:31.675Z,15.25
2019-02-28T09:52:28.627Z,15.50
2019-02-28T09:53:27.618Z,15.06
2019-02-28T09:54:27.606Z,15.13
2019-02-28T09:55:27.600Z,15.28
2019-02-28T09:56:27.585Z,15.64
2019-02-28T09:57:27.576Z,16.01
2019-02-28T09:58:29.258Z,15.96
2019-02-28T09:59:27.555Z,15.78
2019-02-28T10:00:27.798Z,15.34
2019-02-28T10:01:27.532Z,15.09
2019-02-28T10:02:27.520Z,15.19
2019-02-28T10:03:27.511Z,14.78
2019-02-28T10:04:30.500Z,14.94
2019-02-28T10:05:27.491Z,14.62
2019-02-28T10:06:27.479Z,14.55
2019-02-28T10:07:27.467Z,14.92
2019-02-28T10:08:27.456Z,15.07
2019-02-28T10:09:27.448Z,14.72
2019-02-28T10:10:27.435Z,14.89
2019-02-28T10:11:31.171Z,15.32
2019-02-28T10:12:27.414Z,15.39
2019-02-28T10:13:27.404Z,15.82
2019-02-28T10:14:28.831Z,15.39
2019-02-28T10:15:27.383Z,15.50
2019-02-28T10:16:27.371Z,15.60
2019-02-28T10:17:28.931Z,15.64
2019-02-28T10:18:27.351Z,15.53
2019-02-28T10:19:27.342Z,15.96
2019-02-28T10:20:28.523Z,15.69
2019-02-28T10:21:27.317Z,15.47
2019-02-28T10:22:27.308Z,15.62
2019-02-28T10:23:27.297Z,15.74
2019-02-28T10:24:28.403Z,15.76
2019-02-28T10:25:27.280Z,15.60
2019-02-28T10:26:27.268Z,15.29
2019-02-28T10:27:27.674Z,15.46
2019-02-28T10:28:27.244Z,15.44
2019-02-28T10:29:27.233Z,15.29
2019-02-28T10:30:31.874Z,15.14
2019-02-28T10:31:36.153Z,15.03
2019-02-28T10:32:28.200Z,15.23
2019-02-28T10:33:27.194Z,15.57
2019-02-28T10:34:27.487Z,15.41
2019-02-28T10:35:27.169Z,15.39
2019-02-28T10:36:27.159Z,16.01
2019-02-28T10:37:27.155Z,16.05
2019-02-28T10:38:32.559Z,16.25
2019-02-28T10:39:28.128Z,16.75
2019-02-28T10:40:27.117Z,17.07
2019-02-28T10:41:27.959Z,16.96
2019-02-28T10:42:27.097Z,17.00
2019-02-28T10:43:27.084Z,16.85
2019-02-28T10:44:30.627Z,16.78
2019-02-28T10:45:27.084Z,16.61
2019-02-28T10:46:27.052Z,16.53
2019-02-28T10:47:29.628Z,16.35
2019-02-28T10:48:27.029Z,16.24
2019-02-28T10:49:27.018Z,16.28
2019-02-28T10:50:31.938Z,16.81
2019-02-28T10:51:27.994Z,16.96
2019-02-28T10:52:30.473Z,16.96
2019-02-28T10:53:26.976Z,16.57
2019-02-28T10:54:26.967Z,16.43
2019-02-28T10:55:26.956Z,16.30
2019-02-28T10:56:31.727Z,16.33
2019-02-28T10:57:27.930Z,16.52
2019-02-28T10:58:26.920Z,17.41
2019-02-28T10:59:26.910Z,17.86
2019-02-28T11:00:29.395Z,17.87
2019-02-28T11:01:27.886Z,17.97
2019-02-28T11:02:26.878Z,18.15
2019-02-28T11:03:31.713Z,18.42
2019-02-28T11:04:27.860Z,17.95
2019-02-28T11:05:27.572Z,17.58
2019-02-28T11:06:28.234Z,17.71
2019-02-28T11:07:26.824Z,17.56
2019-02-28T11:08:26.814Z,17.51
2019-02-28T11:09:26.807Z,17.12
2019-02-28T11:10:28.826Z,16.67
2019-02-28T11:11:26.782Z,16.48
2019-02-28T11:12:26.786Z,16.21
2019-02-28T11:13:28.551Z,16.05
2019-02-28T11:14:27.750Z,15.84
2019-02-28T11:15:26.741Z,15.78
2019-02-28T11:16:26.729Z,15.84
2019-02-28T11:17:26.721Z,16.00
2019-02-28T11:18:26.715Z,15.53
2019-02-28T11:19:26.698Z,15.57
2019-02-28T11:20:27.128Z,16.05
2019-02-28T11:21:29.829Z,16.12
2019-02-28T11:22:26.665Z,16.00
2019-02-28T11:23:26.654Z,15.89
2019-02-28T11:24:27.180Z,16.02
2019-02-28T11:25:26.633Z,16.33
2019-02-28T11:26:26.622Z,16.70
2019-02-28T11:27:26.614Z,17.28
2019-02-28T11:28:28.266Z,16.93
2019-02-28T11:29:26.590Z,16.60
2019-02-28T11:30:26.582Z,16.31
2019-02-28T11:31:26.570Z,16.39
2019-02-28T11:32:29.352Z,16.71
2019-02-28T11:33:26.548Z,16.78
2019-02-28T11:34:26.536Z,16.52
2019-02-28T11:35:26.528Z,16.53
2019-02-28T11:36:26.517Z,16.64
2019-02-28T11:37:26.506Z,16.57
2019-02-28T11:38:26.495Z,16.63
2019-02-28T11:39:27.550Z,16.33
2019-02-28T11:40:26.474Z,16.17
2019-02-28T11:41:26.463Z,15.86
2019-02-28T11:42:28.000Z,15.83
2019-02-28T11:43:26.859Z,15.87
2019-02-28T11:44:26.432Z,15.86
2019-02-28T11:45:26.421Z,15.67
2019-02-28T11:46:26.410Z,15.80
2019-02-28T11:47:26.400Z,15.67
2019-02-28T11:48:26.389Z,15.75
2019-02-28T11:49:28.653Z,15.80
2019-02-28T11:50:26.367Z,16.31
2019-02-28T11:51:26.358Z,16.82
2019-02-28T11:52:27.346Z,17.25
2019-02-28T11:53:26.338Z,17.21
2019-02-28T11:54:26.325Z,16.63
2019-02-28T11:55:27.188Z,16.31
2019-02-28T11:56:28.916Z,16.34
2019-02-28T11:57:26.316Z,16.58
2019-02-28T11:58:26.283Z,16.45
2019-02-28T11:59:26.276Z,16.27
2019-02-28T12:00:26.293Z,16.31
2019-02-28T12:01:26.251Z,16.31
2019-02-28T12:02:26.242Z,16.11
2019-02-28T12:03:26.232Z,15.76
2019-02-28T12:04:26.218Z,15.19
2019-02-28T12:05:26.210Z,15.07
2019-02-28T12:06:26.385Z,14.80
2019-02-28T12:07:26.189Z,14.91
2019-02-28T12:08:26.178Z,15.01
2019-02-28T12:09:26.165Z,14.95
2019-02-28T12:10:27.096Z,14.92
2019-02-28T12:11:26.152Z,14.98
2019-02-28T12:12:26.137Z,15.14
2019-02-28T12:13:26.123Z,15.34
2019-02-28T12:14:26.449Z,16.25
2019-02-28T12:15:26.102Z,16.21
2019-02-28T12:16:26.094Z,16.11
2019-02-28T12:17:28.528Z,15.92
2019-02-28T12:18:26.243Z,15.97
2019-02-28T12:19:26.066Z,16.34
2019-02-28T12:20:26.737Z,17.22
2019-02-28T12:21:26.037Z,17.79
2019-02-28T12:22:26.035Z,17.63
2019-02-28T12:23:26.016Z,17.44
2019-02-28T12:24:26.006Z,18.11
2019-02-28T12:25:25.993Z,18.08
2019-02-28T12:26:25.984Z,18.00
2019-02-28T12:27:27.624Z,17.89
2019-02-28T12:28:25.967Z,17.78
2019-02-28T12:29:25.959Z,17.93
2019-02-28T12:30:26.096Z,18.23
2019-02-28T12:31:25.931Z,17.84
2019-02-28T12:32:25.920Z,17.75
2019-02-28T12:33:25.916Z,17.95
2019-02-28T12:34:28.751Z,18.47
2019-02-28T12:35:25.891Z,18.72
2019-02-28T12:36:27.621Z,18.50
2019-02-28T12:37:25.869Z,18.10
2019-02-28T12:38:29.022Z,18.00
2019-02-28T12:39:25.848Z,18.30
2019-02-28T12:40:25.838Z,17.77
2019-02-28T12:41:26.277Z,17.62
2019-02-28T12:42:25.813Z,17.52
2019-02-28T12:43:25.805Z,17.43
2019-02-28T12:44:25.796Z,17.28
2019-02-28T12:45:25.783Z,17.23
2019-02-28T12:46:25.775Z,17.19
2019-02-28T12:47:25.761Z,17.36
2019-02-28T12:48:27.142Z,17.41
2019-02-28T12:49:27.596Z,17.14
2019-02-28T12:50:25.730Z,17.41
2019-02-28T12:51:25.721Z,17.41
2019-02-28T12:52:25.711Z,17.46
2019-02-28T12:53:25.699Z,17.66
2019-02-28T12:54:26.072Z,17.34
2019-02-28T12:55:25.676Z,17.33
2019-02-28T12:56:25.668Z,16.97
2019-02-28T12:57:25.660Z,16.81
2019-02-28T12:58:25.648Z,16.49
2019-02-28T12:59:25.635Z,16.64
2019-02-28T13:00:25.633Z,16.81
2019-02-28T13:01:25.616Z,16.75
2019-02-28T13:02:25.603Z,16.68
2019-02-28T13:03:25.590Z,16.61
2019-02-28T13:04:25.587Z,16.64
2019-02-28T13:05:25.575Z,16.28
2019-02-28T13:06:25.559Z,16.17
2019-02-28T13:07:25.549Z,16.21